Time;durP1;ratioP1;P1;durP2;ratioP2;P2;SDS_P1;SDS_P2;PMS_P1;PMS_P2;Temp;Humidity;BMP_temperature;BMP_pressure;BME280_temperature;BME280_humidity;BME280_pressure;Samples;Min_cycle;Max_cycle;Signal;HPM_P1;HPM_P2
2022/06/16 00:03:21;;;;;;;3.85;2.83;;;;;;;15.35;62.84;99463.13;8516624;27;20054;-73
2022/06/16 00:07:23;;;;;;;10.70;3.35;;;;;;;15.32;63.03;99463.81;8517998;27;20038;-73
2022/06/16 00:11:24;;;;;;;9.40;3.13;;;;;;;15.33;62.97;99465.41;8487244;27;20046;-73
2022/06/16 00:15:29;;;;;;;7.65;3.05;;;;;;;15.29;63.01;99459.00;8515016;27;20055;-72
2022/06/16 00:19:30;;;;;;;6.85;2.90;;;;;;;15.28;63.10;99441.06;8511959;27;20125;-73
2022/06/16 00:23:32;;;;;;;7.28;2.80;;;;;;;15.31;62.96;99440.44;8520807;27;20050;-73
2022/06/16 00:27:33;;;;;;;5.72;2.75;;;;;;;15.26;63.02;99437.91;8518205;27;20054;-73
2022/06/16 00:31:36;;;;;;;5.13;3.00;;;;;;;15.25;63.14;99441.75;8471520;27;20038;-73
2022/06/16 00:35:37;;;;;;;5.32;2.97;;;;;;;15.23;62.94;99438.56;8451024;27;20084;-73
2022/06/16 00:39:38;;;;;;;6.45;3.10;;;;;;;15.16;63.33;99430.94;8481144;27;20055;-73
2022/06/16 00:43:39;;;;;;;7.00;2.72;;;;;;;15.16;63.18;99438.31;8518019;27;20138;-73
2022/06/16 00:47:40;;;;;;;11.40;3.13;;;;;;;15.13;63.24;99434.31;8481940;27;20394;-73
2022/06/16 00:51:48;;;;;;;7.85;3.33;;;;;;;15.12;63.48;99421.06;8510484;27;20039;-73
2022/06/16 00:55:50;;;;;;;5.88;2.85;;;;;;;15.10;63.34;99424.09;8497257;27;20517;-73
2022/06/16 00:59:51;;;;;;;7.70;2.80;;;;;;;15.06;63.73;99422.38;8497171;27;20042;-73
2022/06/16 01:08:12;;;;;;;8.27;3.20;;;;;;;15.00;63.84;99418.25;8502860;27;20055;-73
2022/06/16 01:17:00;;;;;;;9.13;3.25;;;;;;;14.92;64.34;99421.81;8511426;27;20043;-73
2022/06/16 01:21:20;;;;;;;14.27;3.30;;;;;;;14.86;64.83;99409.56;8512078;27;20095;-73
2022/06/16 01:25:46;;;;;;;10.93;3.40;;;;;;;14.82;65.01;99405.88;8490450;27;20102;-73
2022/06/16 01:30:01;;;;;;;11.35;3.38;;;;;;;14.82;64.88;99405.88;8512742;27;20074;-73
2022/06/16 01:34:01;;;;;;;9.82;3.53;;;;;;;14.75;65.18;99401.75;8491310;27;20046;-73
2022/06/16 01:38:14;;;;;;;12.85;4.43;;;;;;;14.71;65.55;99406.25;8519651;27;20070;-73
2022/06/16 01:42:25;;;;;;;8.40;3.38;;;;;;;14.67;65.68;99416.19;8476621;27;20051;-74
2022/06/16 01:46:30;;;;;;;5.90;3.30;;;;;;;14.64;65.63;99411.44;8505747;27;20043;-74
2022/06/16 01:50:37;;;;;;;10.38;3.45;;;;;;;14.59;66.11;99408.09;8506076;27;20055;-73
2022/06/16 01:54:44;;;;;;;9.70;3.80;;;;;;;14.56;66.41;99398.66;8491597;27;20047;-73
2022/06/16 01:58:49;;;;;;;10.07;3.63;;;;;;;14.52;66.48;99395.00;8493038;27;20137;-73
2022/06/16 02:03:13;;;;;;;13.10;3.97;;;;;;;14.47;66.75;99395.19;8489688;27;20047;-73
2022/06/16 02:07:22;;;;;;;15.82;4.32;;;;;;;14.49;66.67;99403.03;8505478;27;20082;-73
2022/06/16 02:11:31;;;;;;;16.67;5.30;;;;;;;14.43;67.27;99399.69;8488689;27;20035;-73
2022/06/16 02:15:57;;;;;;;13.65;4.43;;;;;;;14.33;67.59;99389.13;8508852;27;20069;-74
2022/06/16 02:19:58;;;;;;;14.48;4.72;;;;;;;14.31;67.67;99391.41;8496506;27;20458;-73
2022/06/16 02:23:59;;;;;;;9.70;4.63;;;;;;;14.26;67.84;99394.31;8481859;27;20130;-73
2022/06/16 02:28:00;;;;;;;11.57;4.70;;;;;;;14.22;68.01;99398.81;8451006;27;20051;-73
2022/06/16 02:32:23;;;;;;;9.30;4.20;;;;;;;14.19;68.53;99394.00;8472094;27;20595;-73
2022/06/16 02:36:29;;;;;;;10.43;4.53;;;;;;;14.17;68.75;99396.25;8504716;27;20478;-72
2022/06/16 02:40:34;;;;;;;12.45;4.53;;;;;;;14.10;68.78;99395.97;8499054;27;20043;-73
2022/06/16 02:44:51;;;;;;;14.65;5.35;;;;;;;14.05;69.20;99394.22;8493898;27;20073;-74
2022/06/16 02:49:32;;;;;;;10.88;4.63;;;;;;;14.04;69.66;99391.81;8487605;27;20118;-74
2022/06/16 02:54:12;;;;;;;16.88;4.95;;;;;;;14.04;69.54;99394.53;8500162;27;20054;-73
2022/06/16 02:58:16;;;;;;;10.25;4.93;;;;;;;14.02;69.65;99388.63;8505332;27;20493;-73
2022/06/16 03:02:22;;;;;;;12.07;5.20;;;;;;;13.98;70.04;99384.97;8492515;27;20043;-73
2022/06/16 03:06:23;;;;;;;12.20;5.28;;;;;;;13.99;70.01;99378.41;8490823;27;20492;-72
2022/06/16 03:14:43;;;;;;;15.98;5.05;;;;;;;13.99;70.29;99378.41;8502495;27;20037;-73
2022/06/16 03:18:44;;;;;;;15.07;5.35;;;;;;;13.98;70.42;99387.69;8502563;27;20039;-74
2022/06/16 03:22:45;;;;;;;19.05;4.93;;;;;;;13.92;70.69;99385.13;8508904;27;20035;-72
2022/06/16 03:26:49;;;;;;;12.02;4.78;;;;;;;13.91;71.01;99383.53;8511068;27;20122;-73
2022/06/16 03:30:50;;;;;;;15.73;5.55;;;;;;;13.86;71.43;99375.56;8451305;27;20521;-72
2022/06/16 03:34:51;;;;;;;13.98;5.50;;;;;;;13.87;71.54;99376.38;8469798;27;20412;-73
2022/06/16 03:38:52;;;;;;;19.17;6.03;;;;;;;13.89;71.50;99369.50;8505994;27;20050;-73
2022/06/16 03:42:53;;;;;;;13.45;5.90;;;;;;;13.90;71.35;99370.31;8510771;27;20047;-73
2022/06/16 03:46:54;;;;;;;13.90;6.50;;;;;;;13.94;71.34;99368.53;8494350;27;20082;-73
2022/06/16 03:50:55;;;;;;;13.90;5.97;;;;;;;13.96;71.71;99366.28;8493829;27;20050;-72
2022/06/16 03:54:56;;;;;;;14.05;6.35;;;;;;;14.01;71.87;99365.31;8474075;27;20229;-73
2022/06/16 03:58:57;;;;;;;17.40;6.13;;;;;;;14.07;71.76;99366.72;8520956;27;20112;-73
2022/06/16 04:07:17;;;;;;;19.77;6.40;;;;;;;14.29;71.11;99355.59;8509837;27;20046;-73
2022/06/16 04:11:27;;;;;;;17.38;6.28;;;;;;;14.35;71.26;99348.88;8506912;27;20047;-73
2022/06/16 04:15:29;;;;;;;12.63;5.93;;;;;;;14.34;71.31;99352.72;8470651;27;20042;-73
2022/06/16 04:19:30;;;;;;;16.08;6.78;;;;;;;14.35;71.56;99348.88;8510185;27;20130;-73
2022/06/16 04:23:31;;;;;;;14.82;6.32;;;;;;;14.38;71.73;99348.25;8511401;27;20051;-73
2022/06/16 04:27:32;;;;;;;14.57;6.10;;;;;;;14.53;71.46;99342.25;8507277;27;20046;-73
2022/06/16 04:31:34;;;;;;;15.93;7.07;;;;;;;14.58;71.57;99336.63;8507496;27;20045;-73
2022/06/16 04:35:35;;;;;;;15.50;6.60;;;;;;;14.75;70.94;99336.50;8503345;27;20035;-73
2022/06/16 04:39:36;;;;;;;14.88;6.45;;;;;;;14.92;70.83;99340.22;8512403;27;20047;-72
2022/06/16 04:43:37;;;;;;;21.65;7.28;;;;;;;15.01;70.39;99332.81;8506609;27;20054;-72
2022/06/16 04:47:39;;;;;;;16.13;6.90;;;;;;;15.04;70.92;99326.69;8513764;27;20043;-73
2022/06/16 04:51:39;;;;;;;15.48;7.65;;;;;;;15.18;70.59;99332.66;8516373;27;20047;-73
2022/06/16 04:55:40;;;;;;;19.42;6.93;;;;;;;15.26;70.30;99334.53;8524892;27;20416;-73
2022/06/16 04:59:42;;;;;;;15.10;7.13;;;;;;;15.31;70.63;99320.72;8508646;27;20118;-74
2022/06/16 05:03:43;;;;;;;14.85;6.80;;;;;;;15.34;70.70;99324.66;8497554;27;20039;-74
2022/06/16 05:07:44;;;;;;;14.50;7.95;;;;;;;15.44;70.74;99319.59;8501228;27;20129;-73
2022/06/16 05:11:45;;;;;;;19.73;7.68;;;;;;;15.40;71.48;99318.69;8510596;27;20488;-73
2022/06/16 05:15:46;;;;;;;16.83;7.32;;;;;;;15.46;71.05;99306.47;8512131;27;20115;-73
2022/06/16 05:19:47;;;;;;;15.10;7.20;;;;;;;15.52;71.29;99305.16;8460220;27;20083;-73
2022/06/16 05:23:48;;;;;;;12.75;6.40;;;;;;;15.53;71.49;99306.75;8501172;27;20130;-72
2022/06/16 05:27:49;;;;;;;15.98;7.65;;;;;;;15.61;71.64;99307.78;8509333;27;20051;-73
2022/06/16 05:31:51;;;;;;;16.13;7.35;;;;;;;15.77;71.22;99299.75;8507611;27;20055;-73
2022/06/16 05:36:02;;;;;;;21.42;7.32;;;;;;;15.85;71.64;99304.31;8515982;27;20507;-74
2022/06/16 05:40:03;;;;;;;22.52;7.07;;;;;;;16.10;71.59;99303.19;8506086;27;20066;-73
2022/06/16 05:44:05;;;;;;;17.10;7.30;;;;;;;16.28;71.03;99293.69;8504806;27;20134;-74
2022/06/16 05:48:06;;;;;;;12.07;6.93;;;;;;;16.31;71.51;99292.97;8470965;27;20043;-73
2022/06/16 05:52:14;;;;;;;25.75;8.25;;;;;;;16.38;71.56;99298.66;8502291;27;20036;-73
2022/06/16 05:56:15;;;;;;;15.25;7.28;;;;;;;16.53;71.66;99293.63;8515764;27;20050;-73
2022/06/16 06:00:16;;;;;;;15.18;7.88;;;;;;;16.61;71.47;99298.97;8513163;27;20047;-73
2022/06/16 06:04:17;;;;;;;12.27;6.68;;;;;;;16.70;71.32;99304.31;8505038;27;20420;-73
2022/06/16 06:16:40;;;;;;;14.15;7.18;;;;;;;17.14;70.97;99314.19;8514125;27;20467;-72
2022/06/16 06:20:41;;;;;;;18.20;6.82;;;;;;;17.30;70.38;99315.03;8497478;27;20064;-72
2022/06/16 06:24:48;;;;;;;17.55;7.20;;;;;;;17.42;70.32;99321.56;8452440;27;20058;-72
2022/06/16 06:28:49;;;;;;;15.57;6.85;;;;;;;17.58;69.99;99308.75;8454133;28;20051;-73
2022/06/16 06:32:50;;;;;;;14.90;5.97;;;;;;;17.87;69.54;99307.59;8428594;28;20048;-76
2022/06/16 06:36:51;;;;;;;14.50;6.63;;;;;;;18.13;68.96;99305.13;8458877;28;20525;-73
2022/06/16 06:40:52;;;;;;;16.00;6.22;;;;;;;18.26;68.53;99303.06;8457960;28;20070;-73
2022/06/16 06:44:53;;;;;;;15.98;6.22;;;;;;;18.45;68.14;99300.41;8452347;28;20108;-73
2022/06/16 06:48:54;;;;;;;12.77;5.78;;;;;;;18.72;67.43;99299.47;8446426;28;20529;-74
2022/06/16 06:52:58;;;;;;;14.85;5.90;;;;;;;18.98;66.62;99296.91;8447845;28;20047;-73
2022/06/16 06:56:59;;;;;;;15.52;5.53;;;;;;;19.12;66.24;99295.63;8454774;28;20500;-73
2022/06/16 07:01:01;;;;;;;11.82;5.45;;;;;;;19.19;66.35;99301.25;8451384;28;20131;-73
2022/06/16 07:05:02;;;;;;;18.52;6.07;;;;;;;19.19;66.55;99306.72;8449932;28;20156;-73
2022/06/16 07:09:03;;;;;;;16.35;6.53;;;;;;;19.33;66.75;99307.00;8447924;28;20055;-73
2022/06/16 07:13:05;;;;;;;16.73;5.43;;;;;;;19.36;66.73;99307.06;8453837;28;20135;-73
2022/06/16 07:17:05;;;;;;;9.50;4.97;;;;;;;19.49;66.66;99294.03;8436324;28;20146;-74
2022/06/16 07:21:07;;;;;;;13.77;5.70;;;;;;;19.57;66.51;99295.72;8454993;28;20424;-72
2022/06/16 07:25:08;;;;;;;10.98;5.45;;;;;;;19.83;66.15;99297.00;8461460;28;21029;-72
2022/06/16 07:29:10;;;;;;;13.95;5.28;;;;;;;20.11;65.82;99302.94;8514332;27;20065;-72
2022/06/16 07:33:12;;;;;;;15.70;5.68;;;;;;;20.36;65.20;99298.66;8522590;27;20039;-73
2022/06/16 07:37:14;;;;;;;10.88;5.85;;;;;;;20.75;64.86;99303.91;8523889;27;20047;-73
2022/06/16 07:45:35;;;;;;;14.48;4.85;;;;;;;21.47;62.47;99299.72;8486504;27;20050;-72
2022/06/16 07:49:36;;;;;;;7.97;4.32;;;;;;;21.49;61.06;99300.16;8517708;27;20054;-73
2022/06/16 07:53:37;;;;;;;15.80;4.13;;;;;;;21.43;60.65;99290.66;8508113;27;20137;-73
2022/06/16 07:57:43;;;;;;;10.77;4.50;;;;;;;21.33;60.43;99291.34;8521080;27;20039;-73
2022/06/16 08:01:44;;;;;;;12.57;4.80;;;;;;;21.27;61.09;99301.09;8498462;27;20142;-73
2022/06/16 08:05:45;;;;;;;18.25;4.88;;;;;;;21.31;61.97;99296.41;8522227;27;20054;-73
2022/06/16 08:09:46;;;;;;;11.95;5.03;;;;;;;21.40;61.80;99298.88;8498379;27;20043;-72
2022/06/16 08:13:47;;;;;;;11.27;4.43;;;;;;;21.53;62.10;99291.94;8510842;27;20043;-72
2022/06/16 08:17:51;;;;;;;8.57;3.63;;;;;;;21.52;59.97;99300.59;8515784;27;20054;-72
2022/06/16 08:21:52;;;;;;;6.03;3.92;;;;;;;21.62;60.18;99297.16;8470677;27;20063;-72
2022/06/16 08:25:53;;;;;;;9.98;4.15;;;;;;;21.83;59.58;99302.84;8515812;27;20412;-72
2022/06/16 08:29:54;;;;;;;11.18;4.25;;;;;;;21.95;57.74;99310.03;8496581;27;20053;-74
2022/06/16 08:33:56;;;;;;;7.50;4.10;;;;;;;22.08;56.84;99309.38;8501241;27;20045;-72
2022/06/16 08:37:58;;;;;;;6.68;3.78;;;;;;;22.08;55.82;99314.88;8492741;27;20043;-73
2022/06/16 08:42:16;;;;;;;10.88;3.90;;;;;;;22.27;56.28;99309.13;8480667;27;20091;-73
2022/06/16 08:46:19;;;;;;;7.82;3.65;;;;;;;22.43;55.60;99313.56;8484955;27;20055;-73
2022/06/16 08:50:30;;;;;;;9.98;4.57;;;;;;;22.48;55.82;99310.47;8492660;27;20398;-72
2022/06/16 08:54:32;;;;;;;6.93;4.15;;;;;;;22.56;56.86;99306.59;8517298;27;20066;-72
2022/06/16 08:58:46;;;;;;;7.45;3.50;;;;;;;22.89;56.43;99314.69;8512466;27;20042;-72
2022/06/16 09:02:58;;;;;;;10.80;3.70;;;;;;;23.32;55.75;99309.38;8523730;27;20046;-73
2022/06/16 09:07:10;;;;;;;10.45;3.95;;;;;;;23.57;54.39;99310.25;8525036;27;20145;-72
2022/06/16 09:11:14;;;;;;;6.35;3.60;;;;;;;23.69;52.23;99312.63;8513570;27;20381;-73
2022/06/16 09:15:28;;;;;;;7.65;4.10;;;;;;;23.79;51.49;99300.84;8523231;27;20047;-72
2022/06/16 09:19:41;;;;;;;8.88;3.83;;;;;;;24.02;53.03;99310.69;8523429;27;20058;-72
2022/06/16 09:24:03;;;;;;;7.32;3.83;;;;;;;24.19;52.55;99302.44;8523205;27;20050;-73
2022/06/16 09:28:11;;;;;;;9.23;3.97;;;;;;;24.22;52.45;99307.16;8515837;27;20054;-73
2022/06/16 09:32:18;;;;;;;4.50;3.43;;;;;;;24.36;52.69;99300.88;8495440;27;20050;-73
2022/06/16 09:36:24;;;;;;;8.48;3.75;;;;;;;24.61;51.35;99295.31;8493090;27;20038;-73
2022/06/16 09:40:33;;;;;;;5.70;3.70;;;;;;;24.61;51.87;99301.63;8496226;27;20496;-73
2022/06/16 09:44:46;;;;;;;7.40;3.78;;;;;;;24.78;51.76;99294.47;8499226;27;20048;-73
2022/06/16 09:49:15;;;;;;;8.65;3.95;;;;;;;25.06;49.87;99293.63;8519353;27;20055;-72
2022/06/16 09:53:24;;;;;;;10.30;3.47;;;;;;;25.24;49.96;99305.38;8494141;27;20051;-75
2022/06/16 09:57:35;;;;;;;6.40;3.60;;;;;;;25.48;48.82;99293.41;8485764;27;20051;-73
2022/06/16 10:01:48;;;;;;;9.07;4.07;;;;;;;25.34;48.07;99296.25;8513476;27;20402;-73
2022/06/16 10:06:17;;;;;;;11.73;4.15;;;;;;;25.25;47.48;99295.91;8511834;27;20045;-73
2022/06/16 10:10:27;;;;;;;;;;;;;;;25.55;46.36;99293.38;8496609;27;20613;-74
2022/06/16 10:14:43;;;;;;;7.65;3.90;;;;;;;25.58;47.64;99292.59;8506528;27;19927;-74
2022/06/16 10:18:44;;;;;;;8.85;3.72;;;;;;;25.56;48.67;99294.97;8509956;27;20059;-74
2022/06/16 10:22:53;;;;;;;7.97;3.85;;;;;;;25.46;46.73;99290.25;8466999;27;20111;-73
2022/06/16 10:26:57;;;;;;;11.32;3.42;;;;;;;25.29;46.99;99290.34;8483313;27;20055;-74
2022/06/16 10:31:00;;;;;;;10.32;3.40;;;;;;;25.55;48.56;99293.38;8513775;27;20047;-74
2022/06/16 10:35:00;;;;;;;7.60;3.47;;;;;;;26.07;47.44;99296.19;8469832;27;20043;-73
2022/06/16 10:39:09;;;;;;;6.25;3.40;;;;;;;26.37;46.14;99288.06;8502783;27;20088;-73
2022/06/16 10:43:14;;;;;;;8.75;3.17;;;;;;;26.60;45.85;99289.38;8499514;27;20405;-75
2022/06/16 10:47:31;;;;;;;10.55;3.42;;;;;;;26.58;44.02;99277.94;8501118;27;20043;-74
2022/06/16 10:51:35;;;;;;;9.02;2.72;;;;;;;26.63;44.21;99291.34;8503692;27;20134;-74
2022/06/16 10:55:42;;;;;;;5.28;2.97;;;;;;;26.51;43.80;99286.31;8491813;27;20392;-74
2022/06/16 10:59:57;;;;;;;6.80;3.25;;;;;;;26.46;44.39;99285.59;8505528;27;20058;-74
2022/06/16 11:04:11;;;;;;;22.48;3.70;;;;;;;26.69;45.25;99286.94;8473418;27;20519;-74
2022/06/16 11:08:14;;;;;;;9.15;3.30;;;;;;;26.93;42.77;99285.88;8517870;27;20058;-74
2022/06/16 11:12:21;;;;;;;9.68;3.35;;;;;;;27.30;42.14;99283.03;8527363;27;20560;-74
2022/06/16 11:16:30;;;;;;;4.82;2.72;;;;;;;27.63;42.36;99283.41;8455224;27;20043;-74
2022/06/16 11:20:48;;;;;;;5.35;3.38;;;;;;;27.49;40.14;99284.38;8487841;27;20051;-77
2022/06/16 11:25:12;;;;;;;5.65;2.33;;;;;;;27.14;38.86;99273.75;8487315;27;20433;-75
2022/06/16 11:29:23;;;;;;;4.18;2.47;;;;;;;26.80;37.30;99265.44;8521775;27;20062;-75
2022/06/16 11:38:31;;;;;;;6.53;2.20;;;;;;;26.20;37.37;99271.56;8524444;27;20061;-75
2022/06/16 11:42:50;;;;;;;5.45;1.88;;;;;;;26.06;38.14;99275.25;8346666;28;20474;-75
2022/06/16 11:47:30;;;;;;;7.43;2.50;;;;;;;25.92;37.22;99267.06;8338209;28;20045;-75
2022/06/16 11:51:37;;;;;;;5.63;2.70;;;;;;;25.69;38.69;99269.63;8339445;28;20532;-75
2022/06/16 11:55:51;;;;;;;6.43;2.45;;;;;;;25.39;39.92;99257.13;8349477;28;20558;-75
2022/06/16 12:00:17;;;;;;;2.88;1.98;;;;;;;25.08;39.83;99249.78;8331744;28;20065;-75
2022/06/16 12:04:30;;;;;;;8.15;2.50;;;;;;;24.79;39.46;99258.19;8335196;28;20119;-75
2022/06/16 12:08:46;;;;;;;4.10;2.08;;;;;;;24.48;40.93;99264.56;8348322;28;20048;-75
2022/06/16 12:13:15;;;;;;;4.65;1.92;;;;;;;24.23;40.69;99272.09;8344128;28;20056;-75
2022/06/16 12:17:24;;;;;;;5.22;2.55;;;;;;;23.99;41.78;99288.25;8367486;27;20408;-74
2022/06/16 12:21:35;;;;;;;7.50;3.17;;;;;;;23.52;46.25;99324.41;8509280;27;20054;-75
2022/06/16 12:30:43;;;;;;;8.50;2.92;;;;;;;21.56;55.55;99337.13;8337844;28;20041;-74
2022/06/16 12:35:07;;;;;;;5.35;2.40;;;;;;;21.08;59.11;99339.66;8357869;28;20044;-75
2022/06/16 12:39:28;;;;;;;11.15;3.20;;;;;;;20.50;64.86;99342.78;8353488;28;20037;-75
2022/06/16 12:43:34;;;;;;;6.47;2.67;;;;;;;20.28;67.44;99313.41;8340039;28;20044;-75
2022/06/16 12:47:44;;;;;;;11.02;3.63;;;;;;;20.46;69.26;99306.25;8321515;28;20119;-75
2022/06/16 12:51:56;;;;;;;10.25;3.75;;;;;;;20.90;68.90;99301.00;8337738;28;20049;-75
2022/06/16 12:56:03;;;;;;;8.68;3.60;;;;;;;21.18;69.98;99299.78;8351271;28;20052;-74
2022/06/16 13:00:10;;;;;;;8.43;3.05;;;;;;;21.26;69.01;99285.75;8355665;28;20041;-73
2022/06/16 13:04:14;;;;;;;8.20;3.30;;;;;;;21.32;68.97;99281.53;8336738;28;20068;-73
2022/06/16 13:08:16;;;;;;;6.35;3.10;;;;;;;21.37;68.24;99281.19;8470364;27;20055;-73
2022/06/16 13:12:25;;;;;;;9.32;3.33;;;;;;;21.66;67.90;99275.97;8473217;27;20042;-73
2022/06/16 13:16:26;;;;;;;;;;;;;;;22.46;65.28;99268.78;8528969;27;20445;-73
2022/06/16 13:20:31;;;;;;;6.43;2.58;;;;;;;23.10;61.22;99265.22;8520655;27;20478;-74
2022/06/16 13:24:51;;;;;;;4.78;2.25;;;;;;;23.48;59.92;99257.44;8452121;27;20039;-73
2022/06/16 13:29:01;;;;;;;5.90;2.20;;;;;;;24.15;55.41;99256.72;8523423;27;20046;-74
2022/06/16 13:33:18;;;;;;;4.65;1.98;;;;;;;24.23;54.07;99269.31;8508544;27;20038;-76
2022/06/16 13:38:09;;;;;;;3.08;2.00;;;;;;;24.08;55.15;99273.25;8520037;27;20055;-75
2022/06/16 13:42:20;;;;;;;5.20;2.78;;;;;;;23.71;55.80;99266.16;8259977;28;20049;-75
2022/06/16 13:46:21;;;;;;;8.60;2.42;;;;;;;23.43;58.87;99260.56;8255254;28;20046;-74
2022/06/16 13:50:49;;;;;;;11.27;2.80;;;;;;;23.32;58.84;99259.78;8242360;28;20050;-74
2022/06/16 13:55:06;;;;;;;3.47;2.22;;;;;;;24.19;58.17;99263.03;8236056;28;20043;-74
2022/06/16 13:59:25;;;;;;;3.35;2.20;;;;;;;24.76;57.00;99258.97;8239182;28;20076;-74
2022/06/16 14:03:26;;;;;;;4.28;2.85;;;;;;;25.03;55.11;99250.19;8257349;28;20050;-74
2022/06/16 14:07:49;;;;;;;5.18;2.38;;;;;;;25.33;52.39;99253.19;8239484;28;20042;-74
2022/06/16 14:11:59;;;;;;;6.97;2.25;;;;;;;25.35;52.26;99250.81;8161016;29;20051;-74
2022/06/16 14:16:00;;;;;;;5.35;2.10;;;;;;;25.05;52.63;99264.41;8164634;28;20055;-74
2022/06/16 14:20:11;;;;;;;5.03;2.38;;;;;;;24.82;53.01;99267.63;8327233;28;20053;-74
2022/06/16 14:24:23;;;;;;;4.80;2.40;;;;;;;24.72;52.26;99291.34;8349031;28;20202;-73
2022/06/16 14:28:32;;;;;;;3.90;2.28;;;;;;;24.23;52.45;99306.00;8352261;28;20081;-74
2022/06/16 14:32:40;;;;;;;8.45;2.58;;;;;;;23.79;53.12;99306.34;8350992;28;20582;-74
2022/06/16 14:37:13;;;;;;;4.82;2.50;;;;;;;23.36;53.13;99315.66;8332787;28;20056;-74
2022/06/16 14:41:42;;;;;;;3.67;1.70;;;;;;;22.93;49.83;99332.03;8287694;28;20543;-74
2022/06/16 14:45:58;;;;;;;3.97;2.47;;;;;;;22.43;51.84;99365.84;8285445;28;20046;-74
2022/06/16 14:50:11;;;;;;;5.22;2.60;;;;;;;21.99;56.52;99372.16;8408638;28;20404;-74
2022/06/16 14:54:16;;;;;;;5.75;3.20;;;;;;;21.28;61.51;99409.00;8412385;28;20570;-74
2022/06/16 14:58:38;;;;;;;6.80;3.72;;;;;;;20.67;65.27;99428.47;8414055;28;20123;-74
2022/06/16 15:02:41;;;;;;;7.78;4.15;;;;;;;19.99;68.94;99418.25;8327150;28;20380;-74
2022/06/16 15:06:45;;;;;;;13.27;4.40;;;;;;;19.57;71.77;99350.53;8286969;28;20142;-74
2022/06/16 15:10:47;;;;;;;11.15;4.40;;;;;;;19.12;75.38;99328.47;8303602;28;20107;-74
2022/06/16 15:14:49;;;;;;;7.53;4.30;;;;;;;19.09;75.28;99321.00;8372206;28;20135;-74
2022/06/16 15:18:50;;;;;;;9.73;4.78;;;;;;;19.15;75.26;99300.38;8451654;28;20438;-74
2022/06/16 15:22:54;;;;;;;10.70;4.55;;;;;;;19.33;75.39;99288.63;8417492;28;20043;-74
2022/06/16 15:26:58;;;;;;;11.52;4.75;;;;;;;19.41;75.12;99292.28;8449579;28;20055;-74
2022/06/16 15:31:14;;;;;;;11.60;4.40;;;;;;;19.63;75.16;99310.72;8448488;28;20044;-74
2022/06/16 15:39:41;;;;;;;10.55;3.83;;;;;;;21.21;72.32;99293.53;8482446;27;20039;-74
2022/06/16 15:43:42;;;;;;;4.93;3.35;;;;;;;22.87;67.48;99288.69;8461433;27;20218;-75
2022/06/16 15:47:44;;;;;;;7.90;3.40;;;;;;;23.00;66.52;99282.47;8526196;27;20473;-74
2022/06/16 15:51:45;;;;;;;7.22;3.20;;;;;;;23.55;64.96;99285.03;8467173;27;20440;-74
2022/06/16 15:55:47;;;;;;;6.38;3.20;;;;;;;23.58;66.09;99281.50;8518515;27;20077;-74
2022/06/16 15:59:59;;;;;;;5.88;2.90;;;;;;;23.63;65.47;99283.88;8508119;27;20046;-74
2022/06/16 16:04:02;;;;;;;8.07;2.85;;;;;;;23.32;65.01;99281.81;8474684;27;20408;-74
2022/06/16 16:08:15;;;;;;;7.15;2.25;;;;;;;22.62;66.76;99283.03;8526634;27;20038;-74
2022/06/16 16:12:19;;;;;;;5.88;2.60;;;;;;;22.18;67.44;99292.19;8521665;27;20484;-74
2022/06/16 16:16:20;;;;;;;4.40;2.90;;;;;;;21.68;69.53;99295.66;8528042;27;20047;-74
2022/06/16 16:20:24;;;;;;;4.95;2.88;;;;;;;21.27;71.40;99298.34;8493355;27;20046;-74
2022/06/16 16:24:36;;;;;;;5.75;3.25;;;;;;;20.96;72.58;99305.00;8526157;27;20046;-72
2022/06/16 16:28:53;;;;;;;5.55;3.17;;;;;;;20.84;72.70;99296.19;8509771;27;20047;-73
2022/06/16 16:32:54;;;;;;;4.32;2.70;;;;;;;20.80;72.43;99298.91;8522575;27;20042;-74
2022/06/16 16:36:57;;;;;;;4.63;3.22;;;;;;;20.82;72.93;99309.50;8507966;27;20499;-73
2022/06/16 16:45:51;;;;;;;6.30;3.15;;;;;;;20.69;73.57;99321.88;8526265;27;20416;-73
2022/06/16 16:50:00;;;;;;;13.23;5.55;;;;;;;21.42;72.70;99322.06;8456546;28;20105;-73
2022/06/16 16:54:10;;;;;;;6.63;3.60;;;;;;;22.68;68.83;99331.06;8456555;28;20039;-73
2022/06/16 16:58:12;;;;;;;4.93;3.45;;;;;;;22.57;69.52;99335.69;8455258;28;20142;-73
2022/06/16 17:02:13;;;;;;;8.63;3.65;;;;;;;22.23;71.08;99344.09;8449376;28;20509;-73
2022/06/16 17:06:15;;;;;;;3.42;2.75;;;;;;;21.88;72.27;99338.25;8453100;28;20531;-73
2022/06/16 17:10:16;;;;;;;5.38;2.75;;;;;;;21.33;73.79;99346.28;8419008;28;20071;-73
2022/06/16 17:14:28;;;;;;;3.40;2.67;;;;;;;20.90;75.15;99355.09;8367187;28;20044;-72
2022/06/16 17:18:29;;;;;;;4.22;2.97;;;;;;;20.69;75.58;99354.78;8459288;27;20283;-73
2022/06/16 17:22:30;;;;;;;6.47;4.07;;;;;;;20.51;76.18;99360.81;8521521;27;20488;-73
2022/06/16 17:26:31;;;;;;;5.63;3.53;;;;;;;20.57;76.38;99362.06;8519795;27;20054;-74
2022/06/16 17:30:35;;;;;;;21.30;11.23;;;;;;;20.57;76.59;99364.81;8520559;27;20050;-74
2022/06/16 17:34:39;;;;;;;17.98;10.70;;;;;;;20.44;77.37;99360.72;8505603;27;20043;-74
2022/06/16 17:38:43;;;;;;;9.43;6.57;;;;;;;20.24;77.92;99372.88;8522532;27;20129;-77
2022/06/16 17:42:44;;;;;;;8.60;4.43;;;;;;;20.14;78.19;99368.03;8521707;27;20142;-74
2022/06/16 17:46:45;;;;;;;6.72;4.50;;;;;;;20.01;78.64;99375.63;8522743;27;20043;-74
2022/06/16 17:50:46;;;;;;;6.75;5.28;;;;;;;19.89;79.01;99372.25;8513318;27;20042;-74
2022/06/16 18:03:35;;;;;;;8.85;6.05;;;;;;;19.55;80.39;99380.25;8518506;27;20038;-74
2022/06/16 18:07:36;;;;;;;11.85;6.15;;;;;;;19.51;80.56;99390.31;8522060;27;20103;-74
2022/06/16 18:11:37;;;;;;;14.77;6.50;;;;;;;19.47;80.81;99394.13;8513748;27;20049;-74
2022/06/16 18:15:38;;;;;;;8.63;5.95;;;;;;;19.47;81.05;99394.13;8521629;27;20042;-76
2022/06/16 18:19:39;;;;;;;9.75;5.97;;;;;;;19.48;81.23;99406.69;8499441;27;20107;-76
2022/06/16 18:23:42;;;;;;;8.90;6.10;;;;;;;19.44;81.63;99401.13;8466087;27;20493;-76
2022/06/16 18:27:45;;;;;;;7.90;5.75;;;;;;;19.37;82.08;99422.88;8521064;27;20054;-76
2022/06/16 18:31:45;;;;;;;16.00;6.72;;;;;;;19.28;82.33;99425.03;8520778;27;20039;-76
2022/06/16 18:35:47;;;;;;;7.78;5.57;;;;;;;19.16;82.67;99428.69;8522493;27;20046;-75
2022/06/16 18:39:49;;;;;;;10.20;6.53;;;;;;;19.06;83.06;99429.25;8522644;27;20042;-76
2022/06/16 18:43:52;;;;;;;11.98;6.82;;;;;;;19.01;83.64;99420.50;8472469;27;20510;-75
2022/06/16 18:47:53;;;;;;;9.05;5.88;;;;;;;18.98;83.63;99428.28;8504692;27;20039;-75
2022/06/16 18:51:54;;;;;;;11.05;6.28;;;;;;;18.94;83.81;99435.63;8483768;27;20466;-75
2022/06/16 18:55:55;;;;;;;9.90;6.22;;;;;;;18.87;83.85;99432.72;8522905;27;20035;-76
2022/06/16 18:59:57;;;;;;;11.50;6.28;;;;;;;18.80;84.04;99438.03;8519763;27;20043;-76
2022/06/16 19:03:58;;;;;;;11.48;6.45;;;;;;;18.77;84.06;99443.44;8518463;27;20576;-75
2022/06/16 19:07:59;;;;;;;8.20;6.18;;;;;;;18.74;84.21;99455.84;8480042;27;20046;-75
2022/06/16 19:12:18;;;;;;;14.02;6.70;;;;;;;18.70;84.40;99460.47;8524829;27;20091;-75
2022/06/16 19:16:20;;;;;;;8.90;6.40;;;;;;;18.64;84.55;99472.81;8516456;27;20095;-75
2022/06/16 19:20:27;;;;;;;8.80;6.60;;;;;;;18.58;85.12;99479.69;8528216;27;20065;-75
2022/06/16 19:24:28;;;;;;;9.68;6.30;;;;;;;18.48;85.28;99486.44;8524635;27;20057;-75
2022/06/16 19:28:29;;;;;;;9.98;6.75;;;;;;;18.44;85.65;99484.78;8527609;27;20138;-74
2022/06/16 19:32:32;;;;;;;9.55;6.05;;;;;;;18.37;85.83;99492.78;8527620;27;20043;-76
2022/06/16 19:36:37;;;;;;;7.88;6.03;;;;;;;18.23;86.32;99495.16;8523499;27;20851;-75
2022/06/16 19:40:40;;;;;;;8.45;5.57;;;;;;;18.17;86.36;99502.00;8507645;27;20146;-75
2022/06/16 19:53:23;;;;;;;8.88;4.70;;;;;;;18.06;83.53;99529.84;8526082;27;20042;-75
2022/06/16 19:57:25;;;;;;;8.10;4.90;;;;;;;18.00;82.97;99531.22;8472236;27;20047;-75
2022/06/16 20:01:26;;;;;;;7.40;4.50;;;;;;;17.96;81.10;99535.81;8482992;27;20564;-75
2022/06/16 20:05:29;;;;;;;11.30;4.80;;;;;;;17.86;80.83;99551.88;8527621;27;20484;-76
2022/06/16 20:09:30;;;;;;;9.57;4.97;;;;;;;17.82;80.30;99557.22;8521446;27;20055;-75
2022/06/16 20:13:32;;;;;;;8.27;3.92;;;;;;;17.76;79.58;99553.16;8498879;27;20171;-75
2022/06/16 20:17:34;;;;;;;9.77;4.10;;;;;;;17.70;77.15;99560.00;8525092;27;20055;-75
2022/06/16 20:21:36;;;;;;;7.35;3.92;;;;;;;17.68;76.21;99573.22;8434220;27;20093;-75